Time;durP1;ratioP1;P1;durP2;ratioP2;P2;SDS_P1;SDS_P2;PMS_P1;PMS_P2;Temp;Humidity;BMP_temperature;BMP_pressure;BME280_temperature;BME280_humidity;BME280_pressure;Samples;Min_cycle;Max_cycle;Signal;HPM_P1;HPM_P2
2022/10/02 00:00:00;;;;;;;11.20;6.12;;;;;;;13.91;100.00;98354.86;1709875;83;20985;-71
2022/10/02 00:02:43;;;;;;;7.83;5.58;;;;;;;13.92;100.00;98346.00;1706388;83;21240;-71
2022/10/02 00:05:18;;;;;;;8.63;5.37;;;;;;;13.90;100.00;98340.85;1709778;84;20945;-71
2022/10/02 00:07:59;;;;;;;7.53;5.65;;;;;;;13.88;100.00;98335.70;1690017;84;21429;-71
2022/10/02 00:10:53;;;;;;;9.75;6.17;;;;;;;13.85;100.00;98327.39;1689877;84;21465;-72
2022/10/02 00:13:49;;;;;;;12.07;6.53;;;;;;;13.80;100.00;98335.38;1709840;84;21492;-72
2022/10/02 00:16:42;;;;;;;12.05;5.53;;;;;;;13.77;100.00;98341.63;1709966;84;21222;-71
2022/10/02 00:19:13;;;;;;;12.07;6.12;;;;;;;13.72;100.00;98335.03;1709797;84;21044;-71
2022/10/02 00:21:58;;;;;;;9.23;6.03;;;;;;;13.66;100.00;98337.08;1689842;84;20988;-71
2022/10/02 00:24:44;;;;;;;11.33;6.03;;;;;;;13.60;100.00;98335.78;1709854;84;20929;-71
2022/10/02 00:27:42;;;;;;;14.13;6.62;;;;;;;13.55;100.00;98335.49;1709819;83;20894;-71
2022/10/02 00:30:18;;;;;;;9.80;7.00;;;;;;;13.50;100.00;98334.41;1689830;84;20985;-71
2022/10/02 00:33:08;;;;;;;15.53;7.53;;;;;;;13.44;100.00;98316.56;1713363;83;20954;-71
2022/10/02 00:36:06;;;;;;;14.78;7.22;;;;;;;13.40;100.00;98305.47;1714112;83;20930;-71
2022/10/02 00:38:55;;;;;;;11.28;6.78;;;;;;;13.39;100.00;98304.45;1689764;84;21485;-72
2022/10/02 00:42:01;;;;;;;10.10;7.75;;;;;;;13.36;100.00;98289.44;1710123;83;20950;-72
2022/10/02 00:45:05;;;;;;;8.90;6.92;;;;;;;13.33;100.00;98287.99;1699916;83;21233;-71
2022/10/02 00:47:58;;;;;;;11.12;7.25;;;;;;;13.29;100.00;98282.41;1709801;83;20981;-71
2022/10/02 00:50:54;;;;;;;9.75;6.95;;;;;;;13.27;100.00;98276.50;1689838;84;20937;-71
2022/10/02 00:53:49;;;;;;;;;;;;;;;13.25;100.00;98271.92;1712512;83;20970;-71
2022/10/02 00:56:31;;;;;;;14.23;7.22;;;;;;;13.23;100.00;98259.09;1710074;84;20099;-70
2022/10/02 00:59:19;;;;;;;14.07;7.03;;;;;;;13.18;100.00;98240.89;1686592;84;21527;-70
2022/10/02 01:01:50;;;;;;;11.83;6.97;;;;;;;13.15;100.00;98231.95;1709717;83;20862;-70
2022/10/02 01:04:34;;;;;;;;;;;;;;;13.15;100.00;98228.40;1712804;84;21444;-71
2022/10/02 01:07:02;;;;;;;8.88;6.83;;;;;;;13.13;100.00;98221.88;1710012;83;22221;-70
2022/10/02 01:09:33;;;;;;;9.30;6.62;;;;;;;13.12;100.00;98213.97;1710342;84;20898;-70
2022/10/02 01:12:04;;;;;;;10.30;6.95;;;;;;;13.10;100.00;98209.41;1686540;84;20989;-70
2022/10/02 01:14:35;;;;;;;8.35;6.47;;;;;;;13.09;100.00;98207.23;1713361;83;21503;-71
2022/10/02 01:17:30;;;;;;;15.25;7.55;;;;;;;13.10;100.00;98214.34;1713580;83;20875;-70
2022/10/02 01:20:06;;;;;;;9.05;6.72;;;;;;;13.09;100.00;98208.61;1705756;84;20960;-70
2022/10/02 01:22:45;;;;;;;10.40;7.20;;;;;;;13.09;100.00;98214.12;1709976;83;21429;-70
2022/10/02 01:25:11;;;;;;;8.63;6.42;;;;;;;13.08;100.00;98213.91;1720377;83;21113;-70
2022/10/02 01:27:38;;;;;;;14.47;7.12;;;;;;;13.05;100.00;98203.61;1711375;83;20949;-70
2022/10/02 01:30:13;;;;;;;10.20;6.70;;;;;;;13.04;100.00;98204.77;1689782;84;20890;-70
2022/10/02 01:32:47;;;;;;;7.17;5.83;;;;;;;13.03;100.00;98198.25;1709692;84;21009;-70
2022/10/02 01:35:15;;;;;;;9.03;6.35;;;;;;;13.01;100.00;98185.42;1709251;83;21037;-70
2022/10/02 01:37:46;;;;;;;9.68;6.03;;;;;;;13.00;100.00;98179.69;1713588;83;21262;-70
2022/10/02 01:40:32;;;;;;;10.13;6.60;;;;;;;12.99;100.00;98183.03;1709180;83;20988;-70
2022/10/02 01:43:20;;;;;;;10.13;6.60;;;;;;;12.97;100.00;98177.09;1709866;84;20969;-70
2022/10/02 01:46:05;;;;;;;7.65;6.37;;;;;;;12.97;100.00;98177.09;1689825;84;20914;-72
2022/10/02 01:49:01;;;;;;;9.45;6.37;;;;;;;12.98;100.00;98177.30;1709875;83;20968;-72
2022/10/02 01:51:52;;;;;;;9.83;6.53;;;;;;;12.98;100.00;98169.04;1720024;83;21590;-72
2022/10/02 01:55:00;;;;;;;6.93;4.57;;;;;;;12.99;100.00;98162.95;1692109;83;21511;-71
2022/10/02 01:57:52;;;;;;;8.38;5.83;;;;;;;13.00;100.00;98152.15;1692056;83;21439;-72
2022/10/02 02:00:23;;;;;;;6.50;5.30;;;;;;;13.01;100.00;98138.01;1690100;84;20941;-71
2022/10/02 02:03:09;;;;;;;8.15;5.72;;;;;;;13.04;100.00;98140.03;1707204;83;20950;-71
2022/10/02 02:06:01;;;;;;;7.47;5.53;;;;;;;13.06;100.00;98132.20;1709813;84;21242;-71
2022/10/02 02:09:01;;;;;;;8.93;5.65;;;;;;;13.07;100.00;98121.98;1709795;84;20977;-71
2022/10/02 02:11:34;;;;;;;8.63;5.45;;;;;;;13.09;100.00;98110.80;1709705;83;21529;-69
2022/10/02 02:14:29;;;;;;;8.13;6.55;;;;;;;13.11;100.00;98101.59;1709923;84;20902;-69
2022/10/02 02:17:16;;;;;;;8.40;5.67;;;;;;;13.13;100.00;98095.13;1702990;84;20965;-70
2022/10/02 02:20:01;;;;;;;11.20;7.03;;;;;;;13.14;100.00;98101.44;1689935;84;20882;-70
2022/10/02 02:22:30;;;;;;;18.57;7.47;;;;;;;13.14;100.00;98106.37;1720071;83;20937;-70
2022/10/02 02:25:10;;;;;;;10.05;7.25;;;;;;;13.16;100.00;98110.16;1720333;83;20949;-69
2022/10/02 02:27:43;;;;;;;12.25;6.62;;;;;;;13.15;100.00;98106.58;1709867;84;21452;-70
2022/10/02 02:30:15;;;;;;;11.60;7.78;;;;;;;13.18;100.00;98108.63;1709960;83;20985;-70
2022/10/02 02:32:56;;;;;;;10.25;7.45;;;;;;;13.18;100.00;98094.86;1698308;84;21122;-70
2022/10/02 02:35:38;;;;;;;9.85;7.22;;;;;;;13.18;100.00;98081.08;1691899;83;20893;-70
2022/10/02 02:38:31;;;;;;;9.60;7.17;;;;;;;13.18;100.00;98097.61;1719783;83;20925;-71
2022/10/02 02:41:15;;;;;;;13.98;7.58;;;;;;;13.17;100.00;98111.17;1710000;83;21472;-70
2022/10/02 02:44:09;;;;;;;13.65;8.05;;;;;;;13.19;100.00;98112.19;1713070;83;20949;-72
2022/10/02 02:49:33;;;;;;;13.90;8.58;;;;;;;13.19;100.00;98106.09;1714130;83;21438;-69
2022/10/02 02:52:02;;;;;;;11.38;7.40;;;;;;;13.18;100.00;98108.63;1710187;84;20906;-71
2022/10/02 02:54:37;;;;;;;14.00;7.90;;;;;;;13.19;100.00;98101.16;1711438;83;21491;-70
2022/10/02 02:57:05;;;;;;;9.78;7.90;;;;;;;13.19;100.00;98084.62;1712570;83;20985;-69
2022/10/02 02:59:34;;;;;;;10.32;7.58;;;;;;;13.20;100.00;98087.60;1694265;83;21177;-67
2022/10/02 03:02:07;;;;;;;11.73;7.55;;;;;;;13.20;100.00;98089.77;1709468;83;21447;-67
2022/10/02 03:04:43;;;;;;;13.80;7.60;;;;;;;13.21;100.00;98085.86;1692510;83;21538;-69
2022/10/02 03:07:16;;;;;;;12.68;6.67;;;;;;;13.23;100.00;98078.59;1716338;83;20908;-70
2022/10/02 03:09:57;;;;;;;15.13;7.40;;;;;;;13.25;100.00;98071.34;1709909;84;20939;-70
2022/10/02 03:12:45;;;;;;;10.00;7.23;;;;;;;13.24;100.00;98045.75;1667630;84;21443;-70
2022/10/02 03:15:40;;;;;;;15.23;7.12;;;;;;;13.25;100.00;98031.38;1709788;83;20944;-70
2022/10/02 03:18:22;;;;;;;11.53;7.58;;;;;;;13.22;100.00;98027.41;1709557;83;21490;-69
2022/10/02 03:21:30;;;;;;;11.88;7.78;;;;;;;13.18;100.00;98036.99;1704036;82;21026;-69
2022/10/02 03:24:14;;;;;;;8.88;6.87;;;;;;;13.16;100.00;98050.92;1650521;86;20934;-69
2022/10/02 03:26:56;;;;;;;8.80;6.80;;;;;;;13.13;100.00;98042.78;1643179;87;21113;-69
2022/10/02 03:29:38;;;;;;;10.72;7.70;;;;;;;13.10;100.00;98046.27;1676698;84;20884;-68
2022/10/02 03:32:12;;;;;;;10.20;8.35;;;;;;;13.08;100.00;98027.14;1707529;84;21471;-71
2022/10/02 03:34:39;;;;;;;12.85;7.83;;;;;;;13.06;100.00;98023.96;1707421;83;20908;-69
2022/10/02 03:37:10;;;;;;;13.00;7.92;;;;;;;13.04;100.00;98016.65;1709770;84;20924;-69
2022/10/02 03:39:43;;;;;;;12.70;7.80;;;;;;;13.03;100.00;98014.48;1664928;85;21086;-70
2022/10/02 03:42:20;;;;;;;11.43;6.92;;;;;;;13.03;100.00;98002.08;1650061;85;21095;-70
2022/10/02 03:44:52;;;;;;;10.68;7.42;;;;;;;13.02;100.00;98000.48;1677700;82;21026;-70
2022/10/02 03:47:20;;;;;;;9.65;8.23;;;;;;;13.00;100.00;97992.38;1708461;82;21049;-70
2022/10/02 03:49:51;;;;;;;12.43;8.10;;;;;;;13.00;100.00;97989.63;1725164;82;21554;-70
2022/10/02 03:52:24;;;;;;;10.47;8.53;;;;;;;12.98;100.00;97988.62;1718353;82;21124;-70
2022/10/02 03:54:59;;;;;;;12.35;8.78;;;;;;;12.99;100.00;97983.91;1721743;82;20940;-69
2022/10/02 03:57:29;;;;;;;12.25;8.60;;;;;;;12.99;100.00;97977.81;1725386;82;21015;-70
2022/10/02 04:00:20;;;;;;;10.10;8.43;;;;;;;12.99;100.00;97975.06;1672715;82;20956;-84
2022/10/02 04:03:07;;;;;;;16.20;8.68;;;;;;;13.00;100.00;97990.42;1671763;85;21102;-70
2022/10/02 04:05:54;;;;;;;12.25;8.20;;;;;;;12.98;100.00;97984.48;1710654;82;21119;-69
2022/10/02 04:08:37;;;;;;;11.93;8.53;;;;;;;12.98;100.00;97973.47;1738757;82;20896;-73
2022/10/02 04:11:22;;;;;;;24.32;9.40;;;;;;;12.96;100.00;97960.65;1742076;82;21000;-73
2022/10/02 04:14:17;;;;;;;14.53;9.60;;;;;;;12.96;100.00;97947.45;1723126;82;20929;-73
2022/10/02 04:17:01;;;;;;;11.97;9.05;;;;;;;12.95;100.00;97954.92;1741205;82;20916;-72
2022/10/02 04:19:41;;;;;;;11.95;9.40;;;;;;;12.92;100.00;97952.11;1667715;85;21421;-76
2022/10/02 04:22:33;;;;;;;12.82;8.88;;;;;;;12.92;100.00;97957.05;1739704;82;20971;-74
2022/10/02 04:25:24;;;;;;;10.93;9.00;;;;;;;12.90;100.00;97945.60;1658938;85;21644;-78
2022/10/02 04:28:14;;;;;;;15.70;8.65;;;;;;;12.93;100.00;97937.98;1684682;85;21027;-77
2022/10/02 04:30:46;;;;;;;13.72;7.97;;;;;;;12.93;100.00;97935.22;1648670;85;20914;-77
2022/10/02 04:33:20;;;;;;;12.80;9.83;;;;;;;12.92;100.00;97940.52;1683130;85;21456;-77
2022/10/02 04:36:22;;;;;;;10.75;9.13;;;;;;;12.93;100.00;97947.62;1672846;85;20936;-80
2022/10/02 04:39:21;;;;;;;16.90;11.38;;;;;;;12.95;100.00;97941.73;1654440;85;21018;-80
2022/10/02 04:42:08;;;;;;;14.83;11.15;;;;;;;12.96;100.00;97948.25;1677934;85;21000;-79
2022/10/02 04:45:02;;;;;;;16.15;10.95;;;;;;;12.98;100.00;97944.55;1655651;86;20970;-79
2022/10/02 04:47:57;;;;;;;19.25;9.50;;;;;;;13.03;100.00;97946.19;1655228;85;20999;-79
2022/10/02 04:51:09;;;;;;;17.55;9.35;;;;;;;13.06;100.00;97935.23;1715128;83;20975;-81
2022/10/02 04:54:00;;;;;;;15.03;10.82;;;;;;;13.09;100.00;97928.98;1687212;83;20860;-80
2022/10/02 04:57:28;;;;;;;13.35;10.00;;;;;;;13.09;100.00;97926.22;1687197;83;20900;-89
2022/10/02 05:00:15;;;;;;;16.07;10.35;;;;;;;13.12;100.00;97914.46;1712884;83;20987;-81
2022/10/02 05:03:09;;;;;;;16.32;10.85;;;;;;;13.17;100.00;97919.68;1705111;83;21804;-78
2022/10/02 05:06:02;;;;;;;14.15;10.60;;;;;;;13.17;100.00;97922.44;1705348;84;21458;-83
2022/10/02 05:08:57;;;;;;;19.30;12.23;;;;;;;13.19;100.00;97930.33;1705139;84;20992;-76
2022/10/02 05:11:33;;;;;;;;;;;;;;;13.19;100.00;97939.97;1680203;84;20988;-78
2022/10/02 05:14:26;;;;;;;20.85;13.80;;;;;;;13.19;100.00;97930.33;1705411;84;20109;-77
2022/10/02 05:17:15;;;;;;;27.60;15.65;;;;;;;13.19;100.00;97926.99;1705103;84;20853;-80
2022/10/02 05:20:16;;;;;;;25.80;16.37;;;;;;;13.18;100.00;97917.14;1705101;84;21549;-77
2022/10/02 05:22:59;;;;;;;23.00;15.50;;;;;;;13.18;100.00;97897.84;1705281;83;20897;-76
2022/10/02 05:25:59;;;;;;;24.40;15.10;;;;;;;13.19;100.00;97924.82;1608758;87;21465;-80
2022/10/02 05:28:54;;;;;;;26.15;15.10;;;;;;;13.18;100.00;97907.49;1705531;84;20967;-81
2022/10/02 05:31:59;;;;;;;22.95;15.78;;;;;;;13.19;100.00;97889.80;1705592;84;21549;-81
2022/10/02 05:35:15;;;;;;;24.30;16.57;;;;;;;13.21;100.00;97894.35;1685186;84;21585;-87
2022/10/02 05:38:20;;;;;;;23.35;16.17;;;;;;;13.23;100.00;97897.31;1685153;84;21392;-72
2022/10/02 05:41:12;;;;;;;23.40;16.85;;;;;;;13.21;100.00;97886.09;1705416;84;20967;-76
2022/10/02 05:43:58;;;;;;;32.55;20.45;;;;;;;13.22;100.00;97878.61;1705754;84;20853;-77
2022/10/02 05:46:29;;;;;;;29.82;20.05;;;;;;;13.20;100.00;97873.47;1705221;84;21404;-77
2022/10/02 05:49:20;;;;;;;34.80;20.87;;;;;;;13.19;100.00;97873.27;1705526;84;20896;-75
2022/10/02 05:51:56;;;;;;;37.28;22.50;;;;;;;13.18;100.00;97873.05;1705313;84;20924;-74
2022/10/02 05:54:56;;;;;;;34.45;19.67;;;;;;;13.21;100.00;97877.02;1705508;84;20956;-76
2022/10/02 05:57:43;;;;;;;24.37;17.80;;;;;;;13.23;100.00;97878.82;1705274;84;20999;-75
2022/10/02 06:00:35;;;;;;;28.60;17.82;;;;;;;13.26;100.00;97872.56;1691355;83;20942;-74
2022/10/02 06:03:38;;;;;;;25.12;16.87;;;;;;;13.29;100.00;97865.48;1669978;85;21558;-76
2022/10/02 06:06:40;;;;;;;26.85;18.10;;;;;;;13.30;100.00;97862.35;1673660;85;21061;-79
2022/10/02 06:09:20;;;;;;;31.97;19.15;;;;;;;13.32;100.00;97853.71;1673570;85;21444;-79
2022/10/02 06:12:01;;;;;;;38.38;23.25;;;;;;;13.35;100.00;97848.25;1673707;85;20932;-76
2022/10/02 06:14:37;;;;;;;39.45;22.35;;;;;;;13.37;100.00;97841.77;1674130;85;21443;-74
2022/10/02 06:17:18;;;;;;;36.05;21.07;;;;;;;13.40;100.00;97841.61;1672325;85;20917;-72
2022/10/02 06:20:39;;;;;;;33.18;21.70;;;;;;;13.44;100.00;97842.45;1691886;84;20941;-71
2022/10/02 06:23:25;;;;;;;32.48;19.57;;;;;;;13.44;100.00;97839.69;1685781;85;20876;-74
2022/10/02 06:25:59;;;;;;;32.17;19.95;;;;;;;13.46;100.00;97839.52;1695503;84;21060;-72
2022/10/02 06:28:37;;;;;;;31.93;20.97;;;;;;;13.47;100.00;97834.22;1695362;84;21111;-75
2022/10/02 06:31:21;;;;;;;29.95;20.02;;;;;;;13.48;100.00;97842.70;1688709;85;20927;-81
2022/10/02 06:33:48;;;;;;;26.95;19.45;;;;;;;13.51;100.00;97837.02;1687876;85;20947;-74
2022/10/02 06:36:35;;;;;;;26.42;17.07;;;;;;;13.51;100.00;97832.30;1691558;84;20960;-74
2022/10/02 06:39:53;;;;;;;25.17;18.37;;;;;;;13.50;100.00;97836.22;1688047;85;21026;-76
2022/10/02 06:43:00;;;;;;;25.77;17.80;;;;;;;13.47;100.00;97836.18;1687939;85;21316;-73
2022/10/02 06:45:35;;;;;;;27.22;18.23;;;;;;;13.44;100.00;97828.66;1688434;84;21474;-77
2022/10/02 06:48:25;;;;;;;29.98;18.87;;;;;;;13.45;100.00;97826.11;1687670;85;21023;-72
2022/10/02 06:51:20;;;;;;;23.15;17.02;;;;;;;13.46;100.00;97824.36;1681879;84;21012;-72
2022/10/02 06:54:29;;;;;;;26.55;17.37;;;;;;;13.50;100.00;97824.41;1688130;85;21035;-80
2022/10/02 06:57:29;;;;;;;23.02;17.07;;;;;;;13.53;100.00;97827.79;1688291;84;21646;-75
2022/10/02 07:00:15;;;;;;;21.85;16.12;;;;;;;13.56;100.00;97824.28;1688498;85;21118;-81
2022/10/02 07:02:55;;;;;;;21.82;14.73;;;;;;;13.59;100.00;97818.59;1687640;84;20896;-83
2022/10/02 07:05:34;;;;;;;19.95;14.65;;;;;;;13.58;100.00;97819.18;1687032;85;20982;-84
2022/10/02 07:08:21;;;;;;;20.48;13.95;;;;;;;13.58;100.00;97812.28;1688882;85;21071;-87
2022/10/02 07:11:05;;;;;;;18.27;13.62;;;;;;;13.61;100.00;97816.25;1688402;85;21303;-85
2022/10/02 07:14:07;;;;;;;16.20;12.60;;;;;;;13.63;100.00;97827.70;1688507;85;20952;-86
2022/10/02 07:16:57;;;;;;;14.28;10.20;;;;;;;13.66;100.00;97813.16;1685200;85;20944;-81
2022/10/02 07:20:22;;;;;;;15.08;9.70;;;;;;;13.74;100.00;97811.48;1687414;85;20967;-76
2022/10/02 07:23:19;;;;;;;11.75;8.20;;;;;;;13.77;100.00;97807.17;1688063;85;21042;-75
2022/10/02 07:26:00;;;;;;;7.65;5.97;;;;;;;13.84;100.00;97810.00;1689242;83;21129;-79
2022/10/02 07:28:42;;;;;;;6.20;5.55;;;;;;;13.89;100.00;97826.97;1688800;84;20888;-81
2022/10/02 07:31:32;;;;;;;8.03;4.30;;;;;;;13.92;100.00;97828.77;1678333;84;20919;-75
2022/10/02 07:34:22;;;;;;;3.87;3.25;;;;;;;13.94;100.00;97830.56;1672446;85;21121;-77
2022/10/02 07:37:17;;;;;;;5.37;3.58;;;;;;;13.94;100.00;97831.94;1660030;85;20952;-82
2022/10/02 07:40:09;;;;;;;2.85;1.98;;;;;;;13.98;100.00;97838.28;1659528;86;21156;-82
2022/10/02 07:42:47;;;;;;;3.98;2.00;;;;;;;14.01;100.00;97838.91;1640989;86;20903;-77
2022/10/02 07:45:36;;;;;;;5.25;1.90;;;;;;;14.03;100.00;97822.18;1660463;86;21471;-91
2022/10/02 07:48:27;;;;;;;2.10;1.80;;;;;;;14.08;100.00;97827.94;1636016;87;20901;-85
2022/10/02 07:54:16;;;;;;;2.80;1.70;;;;;;;14.06;100.00;97830.28;1659720;86;21127;-76
2022/10/02 07:56:44;;;;;;;3.33;2.05;;;;;;;14.00;100.00;97831.80;1655005;86;20998;-73
2022/10/02 07:59:14;;;;;;;2.70;2.20;;;;;;;13.92;100.00;97835.08;1670701;83;21007;-89
2022/10/02 08:01:41;;;;;;;3.25;2.22;;;;;;;13.88;100.00;97841.14;1728565;82;20938;-79
2022/10/02 08:04:20;;;;;;;2.70;2.15;;;;;;;13.90;100.00;97837.42;1706568;82;20952;-92
2022/10/02 08:06:47;;;;;;;3.72;2.80;;;;;;;13.97;100.00;97828.42;1732538;82;21196;-89
2022/10/02 08:09:34;;;;;;;7.50;2.45;;;;;;;14.04;100.00;97823.77;1732725;82;20980;-86
2022/10/02 08:12:19;;;;;;;2.90;2.55;;;;;;;14.08;100.00;97822.42;1732871;82;20920;-83
2022/10/02 08:14:46;;;;;;;2.50;2.27;;;;;;;14.09;100.00;97814.35;1732473;82;21446;-77
2022/10/02 08:17:41;;;;;;;3.33;2.52;;;;;;;14.12;100.00;97817.73;1732560;82;21408;-85
2022/10/02 08:20:31;;;;;;;2.55;2.17;;;;;;;14.17;100.00;97820.93;1732508;82;20921;-75
2022/10/02 08:23:22;;;;;;;3.90;2.47;;;;;;;14.23;100.00;97825.52;1714613;82;20958;-76
2022/10/02 08:25:57;;;;;;;4.25;2.45;;;;;;;14.24;100.00;97814.68;1695636;83;20907;-75
2022/10/02 08:28:38;;;;;;;2.67;2.20;;;;;;;14.18;100.00;97825.28;1690646;85;20971;-79
2022/10/02 08:31:11;;;;;;;2.47;1.92;;;;;;;14.10;100.00;97821.45;1682060;84;20895;-76
2022/10/02 08:33:38;;;;;;;2.35;1.90;;;;;;;14.04;100.00;97822.97;1690265;84;21239;-81
2022/10/02 08:36:28;;;;;;;4.15;1.70;;;;;;;14.05;100.00;97827.31;1690666;85;20983;-77
2022/10/02 08:39:18;;;;;;;2.85;1.80;;;;;;;14.09;100.00;97827.56;1689488;84;20891;-94
2022/10/02 08:42:22;;;;;;;3.22;1.70;;;;;;;14.14;100.00;97823.66;1673713;84;20916;-77
2022/10/02 08:45:21;;;;;;;2.25;1.40;;;;;;;14.21;100.00;97823.72;1690924;85;20944;-79
2022/10/02 08:48:22;;;;;;;2.05;1.17;;;;;;;14.26;100.00;97802.67;1690133;84;21155;-86
2022/10/02 08:51:19;;;;;;;1.72;1.30;;;;;;;14.35;100.00;97821.67;1686368;84;20960;-71
2022/10/02 08:54:00;;;;;;;1.55;1.20;;;;;;;14.41;100.00;97816.83;1691012;85;20931;-76
2022/10/02 08:57:11;;;;;;;1.07;1.00;;;;;;;14.42;100.00;97809.34;1682779;84;21451;-75
2022/10/02 08:59:51;;;;;;;1.90;1.20;;;;;;;14.31;100.00;97806.46;1683193;84;20961;-73
2022/10/02 09:03:06;;;;;;;2.05;1.30;;;;;;;14.25;100.00;97807.98;1677332;84;21216;-74
2022/10/02 09:05:58;;;;;;;6.87;1.50;;;;;;;14.21;100.00;97812.69;1670952;86;21004;-74
2022/10/02 09:09:18;;;;;;;2.52;1.60;;;;;;;14.20;100.00;97812.48;1671051;85;25121;-74
2022/10/02 09:12:20;;;;;;;4.80;1.55;;;;;;;14.18;100.00;97817.00;1674681;85;20921;-87
2022/10/02 09:14:59;;;;;;;1.72;1.20;;;;;;;14.12;100.00;97814.38;1686816;84;20949;-79
2022/10/02 09:17:44;;;;;;;1.40;1.20;;;;;;;14.05;100.00;97814.31;1684808;85;21110;-84
2022/10/02 09:20:50;;;;;;;5.00;1.45;;;;;;;13.99;100.00;97820.56;1684485;85;21033;-84
2022/10/02 09:24:07;;;;;;;10.80;1.50;;;;;;;13.93;100.00;97820.11;1684721;85;20905;-77
2022/10/02 09:27:04;;;;;;;5.87;1.20;;;;;;;13.83;100.00;97820.24;1684459;85;20906;-76
2022/10/02 09:30:21;;;;;;;3.22;1.00;;;;;;;13.73;100.00;97825.64;1684438;85;21504;-78
2022/10/02 09:33:30;;;;;;;2.45;0.90;;;;;;;13.63;100.00;97829.88;1675373;85;21272;-76
2022/10/02 09:36:34;;;;;;;2.25;0.90;;;;;;;13.50;100.00;97829.92;1665629;84;20896;-74
2022/10/02 09:39:48;;;;;;;2.02;1.70;;;;;;;13.37;100.00;97832.71;1647635;87;20992;-69
2022/10/02 09:42:35;;;;;;;1.00;0.60;;;;;;;13.25;100.00;97842.05;1675904;84;20941;-70
2022/10/02 09:45:35;;;;;;;0.85;0.50;;;;;;;13.05;100.00;97846.07;1680772;84;20958;-69
2022/10/02 09:48:58;;;;;;;0.68;0.50;;;;;;;12.87;100.00;97847.99;1676198;84;21238;-70
2022/10/02 09:51:54;;;;;;;0.85;0.70;;;;;;;12.76;100.00;97849.80;1654955;84;21004;-70
2022/10/02 09:54:53;;;;;;;0.95;0.60;;;;;;;12.62;100.00;97852.94;1673279;84;21048;-71
2022/10/02 09:57:50;;;;;;;0.98;0.50;;;;;;;12.47;100.00;97852.72;1690574;84;20894;-69
2022/10/02 10:00:33;;;;;;;0.78;0.78;;;;;;;12.34;100.00;97865.08;1644565;84;20964;-70
2022/10/02 10:03:43;;;;;;;2.05;0.88;;;;;;;12.18;100.00;97864.41;1709661;82;21240;-73
2022/10/02 10:06:55;;;;;;;0.98;0.88;;;;;;;12.04;100.00;97870.48;1719834;82;20924;-72
2022/10/02 10:09:49;;;;;;;6.27;2.00;;;;;;;11.94;100.00;97877.95;1721297;82;20987;-72
2022/10/02 10:12:49;;;;;;;2.37;1.17;;;;;;;11.89;100.00;97879.63;1697425;83;21652;-73
2022/10/02 10:15:28;;;;;;;1.35;1.25;;;;;;;11.84;100.00;97871.67;1703101;82;21502;-75
2022/10/02 10:18:25;;;;;;;1.47;1.10;;;;;;;11.80;100.00;97879.86;1688373;83;20941;-77
2022/10/02 10:21:21;;;;;;;1.57;1.10;;;;;;;11.73;100.00;97872.02;1702500;82;20940;-81
2022/10/02 10:24:25;;;;;;;1.47;1.00;;;;;;;11.68;100.00;97873.69;1712201;83;21035;-75
2022/10/02 10:27:02;;;;;;;1.92;1.30;;;;;;;11.66;100.00;97878.75;1703683;83;20984;-73
2022/10/02 10:30:02;;;;;;;1.37;1.07;;;;;;;11.66;100.00;97896.05;1702913;83;21006;-72
2022/10/02 10:33:07;;;;;;;2.77;1.40;;;;;;;11.66;100.00;97886.42;1713542;83;21267;-75
2022/10/02 10:38:31;;;;;;;2.47;1.40;;;;;;;11.66;100.00;97887.00;1717503;83;20931;-71
2022/10/02 10:38:52;;;;;;;3.30;1.25;;;;;;;11.63;100.00;97903.64;1714069;83;21002;-75
2022/10/02 10:42:11;;;;;;;1.82;1.20;;;;;;;11.61;100.00;97884.55;1714841;83;20983;-76
2022/10/02 10:45:28;;;;;;;4.10;1.22;;;;;;;11.62;100.00;97902.63;1717269;83;21451;-75
2022/10/02 10:48:44;;;;;;;2.20;1.40;;;;;;;11.63;100.00;97898.14;1717264;83;21158;-73
2022/10/02 10:51:36;;;;;;;2.45;1.22;;;;;;;11.62;100.00;97891.05;1717228;83;21050;-78
2022/10/02 10:54:31;;;;;;;6.40;1.10;;;;;;;11.60;100.00;97894.74;1719514;83;20877;-83
2022/10/02 10:57:22;;;;;;;9.28;1.17;;;;;;;11.62;100.00;97909.50;1723079;83;20905;-86
2022/10/02 11:00:21;;;;;;;2.37;1.37;;;;;;;11.60;100.00;97896.12;1723171;83;20858;-74
2022/10/02 11:03:25;;;;;;;2.22;1.02;;;;;;;11.63;100.00;97884.98;1717467;83;21253;-79
2022/10/02 11:06:25;;;;;;;1.55;0.98;;;;;;;11.68;100.00;97891.55;1715018;83;20945;-76
2022/10/02 11:09:29;;;;;;;5.65;1.22;;;;;;;11.72;100.00;97901.47;1651818;86;21108;-76
2022/10/02 11:12:38;;;;;;;2.20;1.32;;;;;;;11.77;100.00;97881.16;1650868;86;21150;-78
2022/10/02 11:15:32;;;;;;;3.25;1.22;;;;;;;11.87;100.00;97887.45;1697645;83;20996;-75
2022/10/02 11:18:16;;;;;;;1.55;0.98;;;;;;;11.92;100.00;97863.78;1701735;83;21103;-79
2022/10/02 11:21:05;;;;;;;4.03;0.70;;;;;;;11.96;100.00;97880.34;1708200;84;20894;-75
2022/10/02 11:24:00;;;;;;;3.60;0.90;;;;;;;12.01;100.00;97892.42;1693127;83;20987;-80
2022/10/02 11:27:09;;;;;;;12.28;1.05;;;;;;;12.04;100.00;97880.69;1684795;85;21002;-77
2022/10/02 11:30:06;;;;;;;4.30;1.02;;;;;;;12.05;100.00;97878.16;1665326;85;21221;-74
2022/10/02 11:32:58;;;;;;;1.82;0.80;;;;;;;12.01;100.00;97863.54;1685976;85;21168;-73
2022/10/02 11:35:35;;;;;;;2.83;1.10;;;;;;;11.97;100.00;97879.19;1684923;85;21029;-74
2022/10/02 11:39:03;;;;;;;3.92;1.02;;;;;;;11.97;100.00;97877.23;1666502;85;21031;-72
2022/10/02 11:41:46;;;;;;;1.62;0.98;;;;;;;11.96;100.00;97881.14;1686032;85;20976;-75
2022/10/02 11:44:30;;;;;;;3.83;1.10;;;;;;;11.98;100.00;97882.94;1686076;85;21007;-73
2022/10/02 11:47:27;;;;;;;0.85;0.50;;;;;;;12.00;100.00;97889.45;1686124;85;21187;-72
2022/10/02 11:50:13;;;;;;;3.47;0.72;;;;;;;11.99;100.00;97883.73;1677813;85;20975;-74
2022/10/02 11:53:11;;;;;;;1.47;0.70;;;;;;;11.98;100.00;97873.90;1644517;85;20876;-74
2022/10/02 11:55:58;;;;;;;1.82;0.70;;;;;;;11.97;100.00;97868.98;1685872;85;21087;-77
2022/10/02 11:59:02;;;;;;;0.95;0.57;;;;;;;11.96;100.00;97876.22;1686396;84;20987;-77
2022/10/02 12:02:01;;;;;;;7.87;0.80;;;;;;;11.95;99.84;97849.88;1685820;85;21254;-74
2022/10/02 12:05:14;;;;;;;0.75;0.60;;;;;;;11.92;97.96;97883.61;1676083;85;20953;-71
2022/10/02 12:07:57;;;;;;;2.25;0.95;;;;;;;11.95;99.99;97869.92;1676212;85;20992;-71
2022/10/02 12:10:38;;;;;;;2.10;1.37;;;;;;;11.97;99.91;97874.48;1684669;84;21050;-74
2022/10/02 12:13:14;;;;;;;7.90;3.30;;;;;;;11.96;100.00;97885.84;1676245;84;20896;-72
2022/10/02 12:16:12;;;;;;;4.20;0.60;;;;;;;11.93;100.00;97887.36;1676215;85;21046;-74
2022/10/02 12:19:06;;;;;;;0.90;0.70;;;;;;;11.87;97.90;97888.82;1675991;85;21090;-73
2022/10/02 12:28:38;;;;;;;;;;;;;;;11.70;97.96;97872.75;1681383;84;20905;-69
2022/10/02 12:31:33;;;;;;;2.17;0.90;;;;;;;11.68;98.97;97883.31;1676033;84;21216;-73
2022/10/02 12:34:34;;;;;;;6.22;0.93;;;;;;;11.67;99.74;97884.47;1676339;84;20976;-72
2022/10/02 12:37:30;;;;;;;2.55;1.07;;;;;;;11.68;98.03;97878.61;1676388;85;21071;-72
2022/10/02 12:40:11;;;;;;;0.55;0.42;;;;;;;11.70;97.72;97886.49;1679735;84;21442;-71
2022/10/02 12:43:18;;;;;;;1.22;0.68;;;;;;;11.72;96.49;97876.72;1683791;85;20895;-71
2022/10/02 12:46:06;;;;;;;3.67;0.85;;;;;;;11.76;96.99;97880.34;1684044;84;21129;-72
2022/10/02 12:48:53;;;;;;;2.12;0.78;;;;;;;11.79;95.27;97887.09;1683733;85;20934;-71
2022/10/02 12:51:55;;;;;;;4.72;0.70;;;;;;;11.80;95.50;97873.56;1684016;85;20951;-70
2022/10/02 12:54:51;;;;;;;6.45;1.05;;;;;;;11.77;94.56;97882.54;1677002;85;20981;-71
2022/10/02 12:57:54;;;;;;;7.30;1.05;;;;;;;11.74;93.18;97863.99;1682930;85;20891;-71
2022/10/02 13:01:00;;;;;;;2.92;0.68;;;;;;;11.71;93.38;97886.12;1674045;84;21173;-72
2022/10/02 13:04:04;;;;;;;2.35;0.93;;;;;;;11.74;93.59;97887.36;1697258;82;20888;-72
2022/10/02 13:07:10;;;;;;;1.67;1.05;;;;;;;11.79;92.41;97892.59;1731331;82;20992;-70
2022/10/02 13:09:57;;;;;;;4.58;1.05;;;;;;;11.82;92.42;97877.54;1728894;83;20893;-72
2022/10/02 13:12:52;;;;;;;1.57;0.60;;;;;;;11.87;91.37;97878.62;1728452;83;20948;-72
2022/10/02 13:15:58;;;;;;;4.42;0.80;;;;;;;11.88;88.52;97890.41;1724953;83;21784;-71